Airfield :
LOGIN :

Register | Disclaimer

   EN    FR    IT 

 










Legend :    VFR   Marginal VFR   IFR   Intensive IFR   Very Intensive IFR
Visi :
Ceiling :
>= 8 km
>= 3000ft
5 to 8 km
1000 to 3000 ft
1500m to 5 km
500 to 1000 ft
800 to 1500m
200 to 500 ft
< 800m
< 200 ft
Symbols :   Thunderstorms  Fog  Heavy snow  Heavy precipitations  Wind > 20 kt
SIGMETs :     Misc.  Thunderstorms  Icing  Turbulence  Mountain Waves  Volcanic Ashes







- Airport Elevation : 1411 ft
- IATA code : GVA


LSGG - Genève Cointrin

CURRENT METAR :
  • 111920Z VRB01KT 9999 FEW080 M00/M03 Q1022 NOSIG

EXPIRED METARs :
  • 111850Z VRB01KT 9999 FEW040 01/M03 Q1022 NOSIG
  • 111820Z 36004KT 9999 FEW040 01/M03 Q1022 NOSIG
  • 111750Z 35003KT 9999 FEW040 01/M02 Q1022 NOSIG
  • 111720Z VRB01KT 9999 FEW040 02/M02 Q1022 NOSIG
  • 111650Z 36003KT 9999 FEW040 03/M02 Q1022 NOSIG

TAF TAF LSGG
Valid from the 11 at 18:00 until the 13 at 00:00 UTC


111725Z 1118/1224 VRB03KT 9999 FEW040 TX02/1214Z TNM01/1206Z
PROB40 1200/1208 BKN012
BECMG 1210/1212 05007KT
BECMG 1215/1217 CAVOK
ATIS : +41 22 417 40 81
No reported NOTAMs for that airfield.



MET'MAP, your aeronautical weather chart ! - Copyright ORBIFLY December 2007 - Disclaimer

ORBIFLY MET'MAP TEAM :

Programming & Development : Alexandra Zaïnal
Concept & Development : Baudouin d'Aumeries
Co-Development & Prog : Marc-Olivier Méhu
Technical & hardware support : Manuel Goepfert

Contact : metmap@orbifly.com




SOURCES & CREDITS :

   NOAA